Time;durP1;ratioP1;P1;durP2;ratioP2;P2;SDS_P1;SDS_P2;PMS_P1;PMS_P2;Temp;Humidity;BMP_temperature;BMP_pressure;BME280_temperature;BME280_humidity;BME280_pressure;Samples;Min_cycle;Max_cycle;Signal;HPM_P1;HPM_P2
2024/01/07 00:02:59;;;;;;;37.45;27.20;;;;;;;22.27;53.99;100432.53;31226284;28;20220;-38
2024/01/07 00:18:02;;;;;;;29.63;22.33;;;;;;;22.21;54.40;100445.28;31244505;28;20327;-37
2024/01/07 00:33:05;;;;;;;28.75;21.75;;;;;;;22.20;54.14;100457.00;31242045;28;20200;-37
2024/01/07 00:48:09;;;;;;;29.88;20.17;;;;;;;22.17;54.12;100460.56;31222895;28;20326;-37
2024/01/07 01:03:12;;;;;;;25.38;18.40;;;;;;;22.07;54.29;100482.50;31248675;28;20260;-36
2024/01/07 01:18:15;;;;;;;24.02;17.23;;;;;;;22.03;54.84;100487.25;31226460;28;20328;-38
2024/01/07 01:33:18;;;;;;;22.10;15.45;;;;;;;21.94;54.84;100497.84;31220008;28;20228;-37
2024/01/07 01:48:21;;;;;;;19.40;14.52;;;;;;;21.89;54.61;100523.59;31276964;28;20258;-37
2024/01/07 02:03:24;;;;;;;18.88;14.00;;;;;;;21.85;54.92;100533.97;31287090;28;20685;-37
2024/01/07 02:18:27;;;;;;;22.30;16.15;;;;;;;21.93;54.06;100541.56;31262835;28;20243;-37
2024/01/07 02:33:30;;;;;;;101.88;72.35;;;;;;;21.91;54.57;100555.25;31209556;28;20236;-37
2024/01/07 02:48:33;;;;;;;123.03;86.00;;;;;;;21.92;54.20;100568.25;31233299;28;20636;-37
2024/01/07 03:03:37;;;;;;;213.88;145.30;;;;;;;22.12;53.76;100586.34;31228400;28;20311;-37
2024/01/07 03:18:40;;;;;;;198.48;136.80;;;;;;;22.20;53.88;100595.91;31205185;28;20627;-37
2024/01/07 03:33:44;;;;;;;254.20;172.45;;;;;;;22.25;53.39;100605.00;31202092;28;20308;-37
2024/01/07 03:48:47;;;;;;;247.05;167.55;;;;;;;22.33;53.07;100617.41;31216905;28;20311;-38
2024/01/07 04:03:50;;;;;;;230.20;154.82;;;;;;;22.33;53.18;100623.09;31208516;28;20213;-37
2024/01/07 04:18:53;;;;;;;271.63;196.60;;;;;;;23.08;52.42;100637.69;31200865;28;20319;-38
2024/01/07 04:33:56;;;;;;;344.05;258.98;;;;;;;23.35;51.16;100653.09;31195349;28;20229;-38
2024/01/07 04:48:59;;;;;;;284.70;212.38;;;;;;;23.43;54.18;100657.78;31194516;28;20524;-38
2024/01/07 05:04:02;;;;;;;382.40;291.63;;;;;;;23.51;55.48;100676.72;31205634;28;20256;-37
2024/01/07 05:19:05;;;;;;;354.05;268.48;;;;;;;23.50;54.20;100694.91;31220709;28;20220;-37
2024/01/07 05:34:08;;;;;;;414.35;323.58;;;;;;;23.36;54.17;100708.72;31235258;28;20501;-37
2024/01/07 05:49:11;;;;;;;353.67;277.13;;;;;;;23.24;53.50;100726.56;31225400;28;20266;-37
2024/01/07 06:04:14;;;;;;;294.10;219.35;;;;;;;23.08;52.46;100748.41;31192061;28;20213;-37
2024/01/07 06:19:18;;;;;;;254.60;183.60;;;;;;;22.96;52.70;100769.09;31197458;28;20324;-37
2024/01/07 06:34:21;;;;;;;222.02;157.88;;;;;;;22.88;52.22;100794.75;31203173;28;20201;-37
2024/01/07 06:49:24;;;;;;;196.52;138.25;;;;;;;22.84;52.15;100805.16;31198268;28;20639;-37
2024/01/07 07:04:27;;;;;;;176.98;125.13;;;;;;;22.78;51.62;100845.13;31193038;28;20679;-37
2024/01/07 07:19:30;;;;;;;154.90;110.53;;;;;;;22.67;51.91;100860.06;31204882;28;20253;-37
2024/01/07 07:34:33;;;;;;;140.90;98.68;;;;;;;22.64;51.97;100877.78;31202644;28;20204;-37
2024/01/07 07:49:36;;;;;;;172.07;121.32;;;;;;;22.80;51.63;100916.53;31206578;28;20225;-38
2024/01/07 08:04:41;;;;;;;241.43;168.13;;;;;;;22.78;51.65;100944.44;31197604;28;20221;-38
2024/01/07 08:19:44;;;;;;;340.77;244.07;;;;;;;22.80;51.83;100970.47;31190131;28;20238;-37
2024/01/07 08:34:47;;;;;;;529.53;378.63;;;;;;;22.95;51.91;100988.03;31165871;28;20247;-37
2024/01/07 08:49:53;;;;;;;493.50;352.13;;;;;;;23.01;51.21;101006.47;31228475;28;20290;-38
2024/01/07 09:04:57;;;;;;;429.80;306.90;;;;;;;23.05;50.97;101024.47;31229241;28;20669;-39
2024/01/07 09:20:00;;;;;;;359.95;254.07;;;;;;;23.02;50.89;101039.38;31205705;28;20595;-38
2024/01/07 09:35:05;;;;;;;315.52;221.27;;;;;;;22.97;51.27;101062.31;31171243;28;20701;-39
2024/01/07 09:50:09;;;;;;;274.20;186.15;;;;;;;22.92;51.34;101076.72;31185203;28;20228;-39
2024/01/07 10:05:12;;;;;;;242.65;162.10;;;;;;;22.87;51.39;101080.56;31177809;28;20248;-39
2024/01/07 10:20:18;;;;;;;213.18;139.98;;;;;;;22.83;51.27;101098.66;31246296;28;20307;-38
2024/01/07 10:35:22;;;;;;;182.15;123.05;;;;;;;22.84;51.42;101109.69;31254575;28;20623;-38
2024/01/07 10:50:27;;;;;;;281.38;205.15;;;;;;;22.73;51.97;101120.53;31213162;28;20316;-38
2024/01/07 11:05:37;;;;;;;276.90;200.90;;;;;;;22.70;51.22;101120.44;31250053;28;20258;-39
2024/01/07 11:20:40;;;;;;;232.02;162.77;;;;;;;22.65;51.47;101135.63;31217848;28;20731;-36
2024/01/07 11:36:01;;;;;;;197.27;138.50;;;;;;;22.61;51.12;101157.34;31204643;28;20308;-39
2024/01/07 11:51:05;;;;;;;176.38;124.07;;;;;;;22.58;51.55;101162.91;31162837;28;20233;-39
2024/01/07 12:06:08;;;;;;;153.23;105.78;;;;;;;22.51;50.75;101169.09;31178365;28;20335;-39
2024/01/07 12:21:11;;;;;;;138.85;93.35;;;;;;;22.48;51.06;101180.28;31185940;28;20327;-39
2024/01/07 12:36:14;;;;;;;119.60;83.80;;;;;;;22.43;51.37;101192.69;31162346;28;20299;-39
2024/01/07 12:51:17;;;;;;;274.20;192.13;;;;;;;22.75;50.47;101191.97;31195816;28;20571;-40
2024/01/07 13:06:53;;;;;;;226.43;152.88;;;;;;;22.96;49.88;101211.09;31199338;28;20294;-40
2024/01/07 13:22:02;;;;;;;251.40;172.18;;;;;;;22.93;49.62;101228.81;31194348;28;20524;-39
2024/01/07 13:37:05;;;;;;;277.42;194.60;;;;;;;23.09;49.48;101239.22;31214823;28;20204;-38
2024/01/07 13:52:08;;;;;;;370.55;277.10;;;;;;;23.27;49.43;101259.78;31201425;28;20223;-39
2024/01/07 14:07:11;;;;;;;322.63;235.73;;;;;;;23.23;49.62;101263.69;31221026;28;20228;-38
2024/01/07 14:22:16;;;;;;;367.23;270.85;;;;;;;23.15;49.87;101286.09;31212496;28;20315;-39
2024/01/07 14:37:19;;;;;;;310.95;223.40;;;;;;;23.19;50.11;101297.63;31218574;28;20288;-37
2024/01/07 14:52:23;;;;;;;260.75;182.88;;;;;;;23.13;49.43;101327.38;31237985;28;20637;-39
2024/01/07 15:07:26;;;;;;;302.50;220.57;;;;;;;23.12;49.45;101331.41;31241336;28;20225;-37
2024/01/07 15:22:33;;;;;;;312.65;234.40;;;;;;;23.13;49.42;101356.59;31239032;28;20276;-38
2024/01/07 15:37:36;;;;;;;299.23;219.25;;;;;;;22.96;47.97;101387.09;31207223;28;20239;-38
2024/01/07 15:52:40;;;;;;;269.13;194.75;;;;;;;22.84;48.61;101399.19;31220470;28;20318;-37
2024/01/07 16:07:43;;;;;;;230.20;160.98;;;;;;;22.83;48.66;101413.69;31197450;28;20220;-39
2024/01/07 16:22:46;;;;;;;197.57;138.32;;;;;;;22.73;48.89;101432.72;31206668;28;20320;-38
2024/01/07 16:37:49;;;;;;;258.25;182.40;;;;;;;22.76;48.77;101439.75;31199893;28;20193;-36
2024/01/07 16:52:53;;;;;;;230.77;166.23;;;;;;;23.05;48.34;101439.00;31211259;28;20220;-36
2024/01/07 17:07:57;;;;;;;190.30;131.60;;;;;;;23.05;48.24;101456.88;31186700;28;20576;-37
2024/01/07 17:23:00;;;;;;;168.68;117.72;;;;;;;22.97;47.93;101471.09;31227608;28;20322;-38
2024/01/07 17:38:04;;;;;;;136.55;97.20;;;;;;;22.88;48.22;101495.81;31202848;28;20501;-38
2024/01/07 17:53:07;;;;;;;127.88;88.50;;;;;;;22.73;48.10;101497.97;31223920;28;20320;-37
2024/01/07 18:08:11;;;;;;;108.90;75.47;;;;;;;22.65;47.76;101521.53;31234067;28;20592;-38
2024/01/07 18:23:15;;;;;;;150.40;107.38;;;;;;;22.85;47.55;101528.53;31221077;28;20243;-36
2024/01/07 18:38:18;;;;;;;481.92;362.50;;;;;;;22.83;48.40;101541.44;31210362;28;20196;-37
2024/01/07 18:53:21;;;;;;;355.52;264.65;;;;;;;22.82;48.67;101559.63;31244737;28;20315;-38
2024/01/07 19:08:24;;;;;;;351.60;265.52;;;;;;;22.86;49.11;101571.97;31247794;28;20523;-37
2024/01/07 19:23:27;;;;;;;248.35;177.30;;;;;;;22.79;48.85;101578.16;31241163;28;20331;-36
2024/01/07 19:38:30;;;;;;;230.38;163.23;;;;;;;22.82;49.30;101582.34;31214383;28;20219;-38
2024/01/07 19:53:33;;;;;;;179.35;130.30;;;;;;;22.74;48.98;101592.47;31233737;28;20319;-35
2024/01/07 20:08:36;;;;;;;161.57;116.07;;;;;;;22.78;48.44;101617.06;31240615;28;20275;-36
2024/01/07 20:23:40;;;;;;;132.93;95.60;;;;;;;22.79;48.45;101615.88;31226314;28;20235;-35
2024/01/07 20:38:44;;;;;;;112.93;83.32;;;;;;;22.78;48.30;101614.22;31238832;28;20640;-38
2024/01/07 20:53:47;;;;;;;97.47;71.80;;;;;;;22.83;48.45;101620.91;31215619;28;20347;-39
2024/01/07 21:08:50;;;;;;;93.47;65.97;;;;;;;22.82;47.92;101630.59;31215424;28;20255;-38
2024/01/07 21:23:53;;;;;;;79.22;57.67;;;;;;;22.79;48.01;101637.75;31238328;28;20220;-39
2024/01/07 21:38:56;;;;;;;73.00;53.03;;;;;;;22.76;48.54;101641.25;31238673;28;20196;-38
2024/01/07 21:54:02;;;;;;;65.82;48.17;;;;;;;22.71;47.92;101636.56;31247039;28;20231;-36
2024/01/07 22:09:05;;;;;;;59.47;43.38;;;;;;;22.71;48.39;101642.25;31268784;28;20583;-37
2024/01/07 22:24:09;;;;;;;56.13;39.67;;;;;;;22.61;48.33;101650.22;31266468;28;20327;-36
2024/01/07 22:39:12;;;;;;;48.40;35.63;;;;;;;22.58;48.32;101651.75;31224792;28;20213;-39
2024/01/07 22:54:15;;;;;;;44.63;33.90;;;;;;;22.52;48.53;101664.41;31256283;28;20253;-38
2024/01/07 23:09:18;;;;;;;39.65;29.17;;;;;;;22.51;48.38;101674.06;31252385;28;20418;-39
2024/01/07 23:24:21;;;;;;;37.60;27.83;;;;;;;22.47;48.68;101684.41;31258701;28;20236;-38
2024/01/07 23:39:24;;;;;;;33.33;24.40;;;;;;;22.45;48.17;101689.59;31251614;28;20532;-39
2024/01/07 23:54:28;;;;;;;27.88;21.08;;;;;;;22.42;48.88;101693.91;31230372;28;20229;-39
